Time;durP1;ratioP1;P1;durP2;ratioP2;P2;SDS_P1;SDS_P2;PMS_P1;PMS_P2;Temp;Humidity;BMP_temperature;BMP_pressure;BME280_temperature;BME280_humidity;BME280_pressure;Samples;Min_cycle;Max_cycle;Signal;HPM_P1;HPM_P2
2023/01/06 00:00:28;;;;;;;49.17;16.80;;;10.40;99.90;;;;;;4993622;28;20030;-71
2023/01/06 00:02:54;;;;;;;55.10;16.60;;;10.30;99.90;;;;;;4993617;28;20099;-69
2023/01/06 00:05:19;;;;;;;50.70;16.55;;;10.40;99.90;;;;;;5005798;28;20113;-73
2023/01/06 00:07:48;;;;;;;51.70;17.27;;;10.30;99.90;;;;;;5002406;28;20091;-72
2023/01/06 00:10:13;;;;;;;43.72;16.85;;;10.30;99.90;;;;;;4991690;28;20084;-73
2023/01/06 00:12:39;;;;;;;52.30;16.30;;;10.30;99.90;;;;;;4990580;28;20519;-76
2023/01/06 00:15:05;;;;;;;47.08;17.20;;;10.30;99.90;;;;;;4991189;28;20543;-72
2023/01/06 00:17:31;;;;;;;51.30;17.50;;;10.30;99.90;;;;;;4997698;28;20112;-74
2023/01/06 00:19:57;;;;;;;47.47;16.45;;;10.30;99.90;;;;;;4997050;28;20137;-76
2023/01/06 00:22:22;;;;;;;42.83;16.75;;;10.30;99.90;;;;;;4996364;28;20045;-75
2023/01/06 00:24:48;;;;;;;49.08;16.60;;;10.40;99.90;;;;;;4991334;28;20038;-74
2023/01/06 00:27:13;;;;;;;45.80;17.33;;;10.40;99.90;;;;;;4993107;28;20480;-74
2023/01/06 00:29:39;;;;;;;41.15;16.73;;;10.40;99.90;;;;;;4990986;28;20060;-77
2023/01/06 00:32:05;;;;;;;45.15;17.38;;;10.40;99.90;;;;;;4994769;28;20041;-74
2023/01/06 00:34:30;;;;;;;44.50;16.73;;;10.50;99.90;;;;;;5004625;28;20084;-75
2023/01/06 00:36:56;;;;;;;43.45;15.38;;;10.30;99.90;;;;;;4990117;28;20054;-73
2023/01/06 00:39:22;;;;;;;41.85;14.98;;;10.50;99.90;;;;;;4988379;28;20080;-73
2023/01/06 00:42:03;;;;;;;39.00;14.18;;;10.50;99.90;;;;;;4986954;28;20135;-71
2023/01/06 00:44:34;;;;;;;29.95;13.23;;;10.50;99.90;;;;;;4969465;28;20096;-71
2023/01/06 00:47:01;;;;;;;36.55;13.38;;;10.40;99.90;;;;;;4985307;28;20074;-77
2023/01/06 00:49:27;;;;;;;32.45;13.02;;;10.50;99.90;;;;;;4987298;28;20519;-73
2023/01/06 00:51:53;;;;;;;32.78;14.00;;;10.40;99.90;;;;;;4998152;28;20121;-74
2023/01/06 00:54:18;;;;;;;33.90;14.13;;;10.40;99.90;;;;;;4988678;28;20089;-77
2023/01/06 00:56:48;;;;;;;35.67;13.30;;;10.30;99.90;;;;;;4988781;28;20053;-77
2023/01/06 00:59:16;;;;;;;35.70;15.30;;;10.30;99.90;;;;;;4985427;28;20043;-73
2023/01/06 01:01:42;;;;;;;31.55;13.77;;;10.30;99.90;;;;;;4971659;28;20140;-76
2023/01/06 01:04:08;;;;;;;36.47;14.30;;;10.30;99.90;;;;;;4987818;28;20148;-73
2023/01/06 01:06:35;;;;;;;35.13;13.48;;;10.30;99.90;;;;;;4988262;28;20507;-76
2023/01/06 01:09:01;;;;;;;37.92;13.88;;;10.30;99.90;;;;;;4988707;28;20500;-76
2023/01/06 01:14:12;;;;;;;38.40;13.77;;;10.40;99.90;;;;;;4984742;28;20463;-75
2023/01/06 01:16:38;;;;;;;31.95;13.00;;;10.30;99.90;;;;;;4986302;28;20061;-68
2023/01/06 01:19:04;;;;;;;35.88;13.63;;;10.30;99.90;;;;;;5003306;28;20042;-76
2023/01/06 01:21:30;;;;;;;36.53;13.73;;;10.30;99.90;;;;;;4992194;28;20038;-76
2023/01/06 01:23:56;;;;;;;31.02;13.05;;;10.30;99.90;;;;;;4987967;28;20038;-74
2023/01/06 01:26:21;;;;;;;32.67;12.98;;;10.30;99.90;;;;;;4987476;28;20082;-72
2023/01/06 01:28:47;;;;;;;33.25;12.25;;;10.20;99.90;;;;;;4984164;28;20042;-74
2023/01/06 01:31:14;;;;;;;32.95;12.40;;;10.30;99.90;;;;;;4988187;28;20124;-79
2023/01/06 01:33:40;;;;;;;30.90;12.38;;;10.30;99.90;;;;;;4986396;28;20087;-75
2023/01/06 01:36:08;;;;;;;28.50;12.07;;;10.20;99.90;;;;;;4984694;28;20049;-73
2023/01/06 01:38:34;;;;;;;34.83;11.43;;;10.30;99.90;;;;;;4989125;28;20042;-74
2023/01/06 01:41:00;;;;;;;31.88;11.55;;;10.20;99.90;;;;;;4987972;28;20515;-75
2023/01/06 01:43:52;;;;;;;28.85;11.10;;;10.30;99.90;;;;;;4989552;28;20053;-78
2023/01/06 01:46:23;;;;;;;25.48;11.75;;;10.30;99.90;;;;;;4985896;28;20041;-75
2023/01/06 01:48:51;;;;;;;27.08;10.38;;;10.20;99.90;;;;;;4985449;28;20586;-74
2023/01/06 01:51:21;;;;;;;24.20;10.63;;;10.30;99.90;;;;;;5006702;28;20057;-75
2023/01/06 01:53:50;;;;;;;30.00;10.85;;;10.20;99.90;;;;;;4988236;28;20052;-74
2023/01/06 01:56:21;;;;;;;29.90;10.82;;;10.10;99.90;;;;;;4986263;28;20145;-70
2023/01/06 01:58:55;;;;;;;25.85;10.40;;;10.20;99.90;;;;;;4985047;28;20054;-73
2023/01/06 02:01:21;;;;;;;25.73;10.77;;;10.10;99.90;;;;;;4984681;28;20045;-76
2023/01/06 02:03:46;;;;;;;24.77;10.57;;;10.10;99.90;;;;;;4983632;28;20042;-75
2023/01/06 02:06:18;;;;;;;28.45;11.20;;;10.10;99.90;;;;;;4989084;28;20393;-73
2023/01/06 02:09:05;;;;;;;22.70;9.55;;;10.10;99.90;;;;;;4984225;28;20122;-71
2023/01/06 02:11:33;;;;;;;24.90;9.30;;;10.10;99.90;;;;;;5002121;28;20600;-77
2023/01/06 02:14:18;;;;;;;22.38;9.75;;;10.10;99.90;;;;;;4989606;28;20192;-72
2023/01/06 02:16:56;;;;;;;23.27;9.13;;;10.10;99.90;;;;;;5003894;28;20485;-78
2023/01/06 02:19:22;;;;;;;18.70;8.57;;;10.20;99.90;;;;;;4988918;28;20033;-74
2023/01/06 02:21:56;;;;;;;20.40;8.10;;;10.20;99.90;;;;;;4987877;28;20045;-74
2023/01/06 02:24:43;;;;;;;19.30;8.23;;;10.20;99.90;;;;;;4986327;28;20511;-74
2023/01/06 02:27:15;;;;;;;22.17;8.93;;;10.10;99.90;;;;;;4993455;28;20124;-76
2023/01/06 02:30:18;;;;;;;19.95;8.35;;;10.10;99.90;;;;;;5006649;28;20524;-77
2023/01/06 02:32:53;;;;;;;20.48;8.98;;;10.20;99.90;;;;;;5007565;28;20037;-73
2023/01/06 02:35:37;;;;;;;19.60;8.70;;;10.20;99.90;;;;;;4993347;28;20041;-73
2023/01/06 02:38:21;;;;;;;18.30;9.00;;;10.20;99.90;;;;;;4991320;28;20580;-72
2023/01/06 02:41:01;;;;;;;24.10;9.00;;;10.20;99.90;;;;;;4991849;28;20053;-73
2023/01/06 02:43:51;;;;;;;21.20;8.90;;;10.20;99.90;;;;;;4987035;28;20088;-74
2023/01/06 02:47:11;;;;;;;21.27;9.75;;;10.20;99.90;;;;;;4992495;28;20049;-73
2023/01/06 02:49:49;;;;;;;21.63;9.38;;;10.20;99.90;;;;;;4930074;29;20083;-73
2023/01/06 02:52:24;;;;;;;24.10;10.07;;;10.20;99.90;;;;;;4985899;28;20501;-74
2023/01/06 02:55:12;;;;;;;27.65;10.50;;;10.20;99.90;;;;;;4988692;28;20037;-77
2023/01/06 02:57:57;;;;;;;20.45;10.07;;;10.20;99.90;;;;;;5008554;28;20096;-73
2023/01/06 03:00:37;;;;;;;28.58;10.63;;;10.20;99.90;;;;;;4989476;28;20046;-73
2023/01/06 03:03:12;;;;;;;21.52;10.75;;;10.30;99.90;;;;;;4989125;28;20144;-73
2023/01/06 03:05:40;;;;;;;24.17;11.00;;;10.20;99.90;;;;;;4985658;28;20054;-72
2023/01/06 03:08:15;;;;;;;22.95;11.23;;;10.20;99.90;;;;;;5004972;28;20062;-77
2023/01/06 03:10:43;;;;;;;20.23;10.93;;;10.20;99.90;;;;;;4988263;28;20038;-74
2023/01/06 03:13:35;;;;;;;23.20;11.40;;;10.10;99.90;;;;;;4991176;28;20041;-76
2023/01/06 03:16:01;;;;;;;;;;;10.20;99.90;;;;;;4988755;28;20496;-70
2023/01/06 03:18:28;;;;;;;22.10;12.05;;;10.20;99.90;;;;;;4992044;28;19925;-71
2023/01/06 03:20:56;;;;;;;22.77;10.93;;;10.20;99.90;;;;;;4995250;28;20469;-76
2023/01/06 03:23:22;;;;;;;21.75;11.98;;;10.10;99.90;;;;;;4987827;28;20096;-75
2023/01/06 03:25:48;;;;;;;22.30;11.77;;;10.20;99.90;;;;;;4991973;28;20084;-73
2023/01/06 03:28:14;;;;;;;22.83;11.82;;;10.20;99.90;;;;;;4987626;28;20048;-75
2023/01/06 03:30:52;;;;;;;21.58;12.02;;;10.20;99.90;;;;;;4988454;28;21453;-75
2023/01/06 03:33:31;;;;;;;24.13;12.02;;;10.20;99.90;;;;;;5007542;28;20042;-77
2023/01/06 03:36:09;;;;;;;21.67;11.07;;;10.20;99.90;;;;;;4990353;28;20042;-73
2023/01/06 03:38:47;;;;;;;25.60;11.35;;;10.10;99.90;;;;;;4984200;28;20497;-69
2023/01/06 03:44:34;;;;;;;20.45;10.30;;;10.10;99.90;;;;;;5008666;28;20392;-75
2023/01/06 03:47:11;;;;;;;20.40;10.30;;;10.20;99.90;;;;;;4990168;28;20099;-73
2023/01/06 03:49:54;;;;;;;21.35;10.20;;;10.20;99.90;;;;;;4985816;28;20072;-77
2023/01/06 03:52:26;;;;;;;21.42;10.35;;;10.20;99.90;;;;;;4984451;28;20396;-75
2023/01/06 03:55:30;;;;;;;19.45;10.20;;;10.20;99.90;;;;;;4987379;28;20038;-71
2023/01/06 03:57:58;;;;;;;18.45;9.35;;;10.10;99.90;;;;;;4912489;29;20044;-74
2023/01/06 04:00:33;;;;;;;18.02;9.43;;;10.10;99.90;;;;;;4990029;28;20420;-72
2023/01/06 04:03:00;;;;;;;20.73;8.88;;;10.20;99.90;;;;;;5003342;28;20046;-74
2023/01/06 04:05:27;;;;;;;18.73;8.50;;;10.10;99.90;;;;;;4990395;28;20220;-74
2023/01/06 04:07:53;;;;;;;14.68;8.35;;;10.20;99.90;;;;;;4988937;28;20412;-73
2023/01/06 04:10:20;;;;;;;16.17;8.20;;;10.20;99.90;;;;;;4987120;28;20040;-75
2023/01/06 04:12:46;;;;;;;16.05;8.15;;;10.20;99.90;;;;;;4980670;28;20043;-72
2023/01/06 04:15:31;;;;;;;21.00;8.38;;;10.00;99.90;;;;;;4989858;28;20396;-73
2023/01/06 04:17:57;;;;;;;18.02;7.80;;;10.10;99.90;;;;;;4987190;28;20046;-73
2023/01/06 04:20:28;;;;;;;12.15;8.15;;;10.00;99.90;;;;;;4989316;28;20389;-71
2023/01/06 04:22:55;;;;;;;15.32;7.80;;;10.10;99.90;;;;;;4972888;28;20455;-75
2023/01/06 04:25:21;;;;;;;15.77;8.75;;;10.10;99.90;;;;;;4988664;28;20053;-71
2023/01/06 04:27:47;;;;;;;16.23;9.25;;;10.10;99.90;;;;;;4990883;28;20093;-75
2023/01/06 04:30:12;;;;;;;20.65;9.90;;;10.10;99.90;;;;;;4987934;28;20481;-72
2023/01/06 04:32:38;;;;;;;22.17;11.10;;;10.10;99.90;;;;;;4988660;28;20034;-73
2023/01/06 04:35:05;;;;;;;18.65;11.32;;;10.00;99.90;;;;;;4984539;28;20042;-73
2023/01/06 04:37:30;;;;;;;18.70;11.20;;;10.10;99.90;;;;;;4991035;28;20312;-75
2023/01/06 04:39:56;;;;;;;19.77;11.45;;;10.00;99.90;;;;;;4986970;28;20560;-74
2023/01/06 04:42:21;;;;;;;23.45;12.80;;;10.10;99.90;;;;;;4986545;28;20053;-72
2023/01/06 04:44:47;;;;;;;21.48;12.18;;;10.10;99.90;;;;;;4985615;28;20041;-72
2023/01/06 04:47:13;;;;;;;21.15;12.55;;;10.10;99.90;;;;;;4988747;28;20048;-73
2023/01/06 04:49:38;;;;;;;20.05;12.35;;;10.10;99.90;;;;;;4988922;28;20378;-76
2023/01/06 04:52:04;;;;;;;19.42;11.88;;;10.10;99.90;;;;;;4985663;28;20037;-72
2023/01/06 04:54:30;;;;;;;18.90;11.10;;;10.20;99.90;;;;;;4987292;28;20041;-72
2023/01/06 04:56:55;;;;;;;20.60;11.20;;;10.10;99.90;;;;;;4965957;28;20131;-73
2023/01/06 04:59:21;;;;;;;16.23;10.52;;;10.10;99.90;;;;;;4987315;28;20073;-73
2023/01/06 05:01:46;;;;;;;18.17;9.27;;;10.20;99.90;;;;;;4988442;28;20128;-71
2023/01/06 05:04:12;;;;;;;15.20;8.98;;;10.20;99.90;;;;;;4987798;28;20052;-72
2023/01/06 05:06:38;;;;;;;16.40;8.00;;;10.10;99.90;;;;;;4986177;28;20046;-73
2023/01/06 05:09:05;;;;;;;10.82;7.00;;;10.10;99.90;;;;;;4989969;28;20054;-76
2023/01/06 05:11:30;;;;;;;11.43;6.45;;;10.10;99.90;;;;;;4990307;28;20040;-71
2023/01/06 05:13:57;;;;;;;13.05;6.47;;;10.10;99.90;;;;;;4987467;28;20155;-74
2023/01/06 05:16:27;;;;;;;9.68;5.65;;;10.20;99.90;;;;;;4983617;28;20124;-72
2023/01/06 05:18:53;;;;;;;10.45;5.03;;;10.20;99.90;;;;;;4985320;28;20049;-73
2023/01/06 05:21:20;;;;;;;11.38;4.90;;;10.10;99.90;;;;;;4984812;28;20046;-75
2023/01/06 05:23:45;;;;;;;11.50;5.03;;;10.20;99.90;;;;;;4987526;28;20038;-74
2023/01/06 05:26:20;;;;;;;10.80;5.82;;;10.10;99.90;;;;;;4986999;28;20388;-75
2023/01/06 05:28:46;;;;;;;9.50;6.28;;;10.10;99.90;;;;;;4989446;28;20046;-72
2023/01/06 05:31:12;;;;;;;14.70;6.45;;;10.20;99.90;;;;;;5002346;28;20046;-74
2023/01/06 05:33:38;;;;;;;16.70;6.95;;;10.20;99.90;;;;;;4989101;28;20034;-75
2023/01/06 05:36:12;;;;;;;13.18;7.38;;;10.10;99.90;;;;;;4985423;28;20122;-75
2023/01/06 05:38:38;;;;;;;17.15;8.23;;;10.30;99.90;;;;;;4989806;28;20626;-74
2023/01/06 05:41:04;;;;;;;15.35;8.63;;;10.20;99.90;;;;;;4983444;28;20034;-75
2023/01/06 05:43:32;;;;;;;15.02;8.35;;;10.20;99.90;;;;;;4986032;28;20078;-74
2023/01/06 05:45:59;;;;;;;17.10;8.85;;;10.20;99.90;;;;;;4983896;28;20484;-71
2023/01/06 05:48:26;;;;;;;18.60;9.63;;;10.20;99.90;;;;;;4989488;28;20065;-73
2023/01/06 05:50:58;;;;;;;17.92;10.25;;;10.20;99.90;;;;;;4987542;28;20162;-76
2023/01/06 05:53:24;;;;;;;;;;;10.20;99.90;;;;;;4989406;28;20065;-73
2023/01/06 05:55:49;;;;;;;20.55;10.77;;;10.20;99.90;;;;;;4987757;28;19971;-74
2023/01/06 05:58:15;;;;;;;16.95;10.10;;;10.20;99.90;;;;;;4988399;28;20033;-76
2023/01/06 06:00:40;;;;;;;16.30;9.77;;;10.30;99.90;;;;;;4986453;28;20057;-72
2023/01/06 06:03:06;;;;;;;17.50;9.88;;;10.20;99.90;;;;;;4987314;28;20052;-76
2023/01/06 06:05:32;;;;;;;17.58;10.60;;;10.20;99.90;;;;;;4984446;28;20420;-74
2023/01/06 06:07:57;;;;;;;14.77;9.35;;;10.20;99.90;;;;;;4986968;28;21458;-75
2023/01/06 06:10:23;;;;;;;16.70;9.70;;;10.30;99.90;;;;;;4984502;28;20037;-71
2023/01/06 06:12:51;;;;;;;18.35;10.52;;;10.30;99.90;;;;;;4970290;28;20064;-74
2023/01/06 06:15:18;;;;;;;15.98;9.48;;;10.20;99.90;;;;;;4987364;28;20381;-77
2023/01/06 06:17:44;;;;;;;15.80;9.60;;;10.30;99.90;;;;;;4987928;28;20071;-75
2023/01/06 06:20:09;;;;;;;16.38;10.02;;;10.20;99.90;;;;;;4983365;28;20547;-77
2023/01/06 06:22:35;;;;;;;17.27;9.75;;;10.20;99.90;;;;;;4985997;28;20045;-73
2023/01/06 06:25:00;;;;;;;15.60;9.80;;;10.20;99.90;;;;;;4988024;28;20531;-73
2023/01/06 06:27:27;;;;;;;16.98;9.85;;;10.20;99.90;;;;;;4982002;28;21119;-73
2023/01/06 06:29:52;;;;;;;17.80;10.48;;;10.20;99.90;;;;;;4985149;28;20038;-74
2023/01/06 06:32:18;;;;;;;20.15;9.98;;;10.10;99.90;;;;;;4987822;28;20046;-73
2023/01/06 06:34:43;;;;;;;19.30;9.88;;;10.20;99.90;;;;;;4984572;28;20120;-76
2023/01/06 06:37:09;;;;;;;18.27;10.45;;;10.20;99.90;;;;;;4985793;28;20481;-70
2023/01/06 06:39:34;;;;;;;18.33;10.57;;;10.20;99.90;;;;;;5003339;28;20066;-75
2023/01/06 06:42:00;;;;;;;20.48;10.73;;;10.10;99.90;;;;;;4984009;28;20038;-75
2023/01/06 06:44:25;;;;;;;18.48;10.80;;;10.10;99.90;;;;;;4985914;28;20325;-75
2023/01/06 06:46:51;;;;;;;19.15;10.98;;;10.00;99.90;;;;;;4985032;28;20056;-74
2023/01/06 06:49:16;;;;;;;23.92;11.27;;;10.10;99.90;;;;;;4988753;28;20432;-73
2023/01/06 06:51:46;;;;;;;16.73;10.93;;;10.00;99.90;;;;;;4985526;28;20124;-75
2023/01/06 06:54:12;;;;;;;20.00;10.88;;;10.00;99.90;;;;;;4989016;28;20033;-75
2023/01/06 06:56:37;;;;;;;19.55;11.30;;;10.10;99.90;;;;;;4986950;28;20037;-71
2023/01/06 06:59:03;;;;;;;19.38;11.50;;;10.10;99.90;;;;;;4987015;28;20053;-75
2023/01/06 07:01:30;;;;;;;22.80;11.35;;;10.00;99.90;;;;;;4986800;28;20038;-74
2023/01/06 07:03:57;;;;;;;19.13;10.80;;;10.10;99.90;;;;;;4970560;28;20472;-77
2023/01/06 07:06:26;;;;;;;18.85;11.30;;;10.10;99.90;;;;;;4970752;28;20052;-77
2023/01/06 07:08:51;;;;;;;22.20;11.88;;;10.00;99.90;;;;;;4987968;28;20492;-73
2023/01/06 07:11:20;;;;;;;19.48;13.07;;;10.00;99.90;;;;;;4989274;28;20045;-74
2023/01/06 07:13:46;;;;;;;21.90;11.68;;;10.00;99.90;;;;;;4986225;28;20034;-73
2023/01/06 07:16:12;;;;;;;22.00;12.63;;;10.00;99.90;;;;;;4991238;28;20049;-73
2023/01/06 07:18:38;;;;;;;25.70;13.10;;;10.10;99.90;;;;;;4991904;28;20042;-76
2023/01/06 07:21:04;;;;;;;23.45;13.60;;;10.00;99.90;;;;;;4990792;28;20045;-78
2023/01/06 07:23:30;;;;;;;23.50;14.02;;;10.00;99.90;;;;;;4988205;28;20033;-74
2023/01/06 07:25:58;;;;;;;23.67;12.90;;;10.00;99.90;;;;;;4985858;28;20049;-75
2023/01/06 07:28:26;;;;;;;24.52;12.70;;;9.90;99.90;;;;;;4990539;28;20066;-76
2023/01/06 07:30:52;;;;;;;22.05;12.15;;;10.00;99.90;;;;;;4990289;28;20480;-76
2023/01/06 07:33:18;;;;;;;22.73;11.93;;;10.10;99.90;;;;;;4995235;28;20045;-71
2023/01/06 07:35:44;;;;;;;18.60;12.57;;;10.00;99.90;;;;;;4985587;28;20088;-74
2023/01/06 07:38:10;;;;;;;20.20;11.23;;;10.10;99.90;;;;;;4987370;28;20038;-74
2023/01/06 07:40:36;;;;;;;20.40;10.60;;;10.00;99.90;;;;;;4986522;28;20038;-71
2023/01/06 07:43:07;;;;;;;17.33;10.38;;;10.10;99.90;;;;;;4990520;28;20048;-74
2023/01/06 07:45:33;;;;;;;14.73;8.40;;;10.00;99.90;;;;;;4994387;28;20048;-73
2023/01/06 07:47:58;;;;;;;18.65;8.93;;;10.00;99.90;;;;;;4991645;28;20404;-72
2023/01/06 07:50:24;;;;;;;15.02;7.32;;;9.90;99.90;;;;;;4993934;28;20030;-76
2023/01/06 07:52:50;;;;;;;11.70;7.85;;;10.00;99.90;;;;;;4995530;28;20046;-75
2023/01/06 07:55:16;;;;;;;13.05;6.40;;;10.10;99.90;;;;;;4987429;28;20038;-75
2023/01/06 07:57:41;;;;;;;10.30;6.35;;;10.10;99.90;;;;;;4991135;28;20069;-74
2023/01/06 08:00:08;;;;;;;9.93;5.00;;;10.20;99.90;;;;;;4996267;28;20128;-73
2023/01/06 08:02:34;;;;;;;9.82;4.43;;;10.20;99.90;;;;;;4992343;28;20038;-70
2023/01/06 08:04:59;;;;;;;10.18;3.60;;;10.10;99.90;;;;;;4981283;28;20500;-74
2023/01/06 08:07:25;;;;;;;9.38;2.80;;;10.20;99.90;;;;;;4985989;28;20527;-73
2023/01/06 08:09:50;;;;;;;8.05;3.50;;;10.20;99.90;;;;;;4995208;28;20417;-69
2023/01/06 08:12:16;;;;;;;11.40;3.80;;;10.10;99.90;;;;;;4992352;28;20034;-74
2023/01/06 08:14:42;;;;;;;8.60;3.50;;;10.00;99.90;;;;;;4976344;28;20417;-68
2023/01/06 08:17:07;;;;;;;8.63;3.10;;;10.00;99.90;;;;;;4990062;28;20136;-72
2023/01/06 08:19:33;;;;;;;12.52;3.60;;;9.90;99.90;;;;;;4994335;28;20054;-72
2023/01/06 08:21:59;;;;;;;7.43;3.25;;;9.90;99.90;;;;;;4988378;28;20049;-72
2023/01/06 08:24:24;;;;;;;7.43;3.10;;;9.80;99.90;;;;;;4990621;28;20038;-70
2023/01/06 08:26:50;;;;;;;12.73;2.90;;;9.60;99.90;;;;;;4988833;28;20480;-72
2023/01/06 08:29:16;;;;;;;8.88;2.60;;;9.70;99.90;;;;;;4987201;28;20034;-73
2023/01/06 08:31:41;;;;;;;9.55;2.90;;;9.60;99.90;;;;;;4992631;28;20487;-73
2023/01/06 08:34:07;;;;;;;14.82;2.80;;;9.60;99.90;;;;;;4990366;28;20096;-71
2023/01/06 08:36:32;;;;;;;17.15;2.90;;;9.40;99.90;;;;;;4984038;28;20041;-73
2023/01/06 08:38:58;;;;;;;13.45;2.70;;;9.30;99.90;;;;;;4971618;28;20124;-67
2023/01/06 08:41:23;;;;;;;16.20;2.92;;;9.30;99.90;;;;;;4989275;28;20492;-68
2023/01/06 08:43:49;;;;;;;10.70;2.50;;;9.20;99.90;;;;;;4989208;28;20045;-73
2023/01/06 08:46:18;;;;;;;11.57;2.60;;;9.20;99.90;;;;;;4994870;28;20080;-69
2023/01/06 08:48:44;;;;;;;17.60;2.40;;;9.20;99.90;;;;;;4997490;28;20428;-68
2023/01/06 08:51:15;;;;;;;14.85;2.90;;;9.10;99.90;;;;;;4991985;28;20037;-68
2023/01/06 08:53:42;;;;;;;12.40;2.60;;;9.20;99.90;;;;;;4989120;28;20096;-69
2023/01/06 08:56:13;;;;;;;18.15;3.15;;;9.10;99.90;;;;;;4987168;28;20435;-69
2023/01/06 08:58:40;;;;;;;10.60;2.47;;;9.10;99.90;;;;;;5001765;28;20128;-64
2023/01/06 09:01:05;;;;;;;16.48;2.75;;;9.10;99.90;;;;;;4987390;28;21586;-65
2023/01/06 09:03:31;;;;;;;11.13;2.40;;;9.10;99.90;;;;;;4986962;28;20042;-65
2023/01/06 09:05:57;;;;;;;10.93;2.10;;;9.00;99.90;;;;;;4990939;28;20455;-66
2023/01/06 09:08:23;;;;;;;11.52;2.30;;;9.00;99.90;;;;;;4988159;28;20092;-66
2023/01/06 09:10:50;;;;;;;13.73;2.17;;;9.10;99.90;;;;;;4990684;28;20045;-68
2023/01/06 09:13:16;;;;;;;17.40;2.17;;;9.00;99.90;;;;;;4988514;28;20564;-66
2023/01/06 09:15:42;;;;;;;14.60;2.38;;;9.10;99.90;;;;;;5007472;28;20128;-65
2023/01/06 09:18:09;;;;;;;14.82;2.03;;;9.10;99.90;;;;;;5007270;28;20046;-64
2023/01/06 09:20:35;;;;;;;15.20;2.03;;;9.10;99.90;;;;;;4982790;28;20041;-66
2023/01/06 09:23:01;;;;;;;16.10;1.77;;;9.00;99.90;;;;;;5004711;28;20077;-67
2023/01/06 09:25:26;;;;;;;10.15;1.70;;;9.00;99.90;;;;;;4991706;28;20085;-66
2023/01/06 09:27:52;;;;;;;13.65;1.40;;;9.00;99.90;;;;;;5009164;28;20030;-65
2023/01/06 09:30:18;;;;;;;20.58;2.20;;;9.10;99.90;;;;;;4991182;28;20049;-65
2023/01/06 09:32:43;;;;;;;14.38;1.83;;;9.10;99.90;;;;;;5006599;28;20198;-65
2023/01/06 09:35:09;;;;;;;15.38;2.03;;;9.00;99.90;;;;;;4988785;28;20066;-68
2023/01/06 09:37:35;;;;;;;13.30;1.85;;;9.10;99.90;;;;;;4987540;28;20457;-67
2023/01/06 09:40:02;;;;;;;13.57;1.83;;;9.10;99.90;;;;;;4970828;28;20128;-66
2023/01/06 09:43:02;;;;;;;14.80;2.03;;;9.10;99.90;;;;;;4984009;28;20042;-65
2023/01/06 09:45:34;;;;;;;13.43;2.10;;;9.00;99.90;;;;;;4998622;28;20050;-66
2023/01/06 09:48:03;;;;;;;15.02;2.40;;;9.20;99.90;;;;;;5004808;28;20099;-69
2023/01/06 09:50:40;;;;;;;13.23;1.95;;;9.10;99.90;;;;;;4990110;28;20034;-67
2023/01/06 09:53:24;;;;;;;16.42;2.17;;;9.10;99.90;;;;;;4986229;28;20408;-66
2023/01/06 09:56:13;;;;;;;15.63;2.88;;;9.10;99.90;;;;;;4989546;28;20074;-69
2023/01/06 09:59:11;;;;;;;15.57;1.98;;;9.10;99.90;;;;;;4987801;28;20041;-66
2023/01/06 10:01:44;;;;;;;10.52;1.85;;;9.20;99.90;;;;;;5004497;28;20437;-65
2023/01/06 10:04:16;;;;;;;16.25;1.83;;;9.20;99.90;;;;;;4987586;28;20042;-67
2023/01/06 10:06:58;;;;;;;15.00;1.65;;;9.30;99.90;;;;;;4986214;28;20045;-67
2023/01/06 10:09:47;;;;;;;11.55;1.85;;;9.30;99.90;;;;;;4983018;28;20037;-68
2023/01/06 10:12:16;;;;;;;17.98;1.80;;;9.40;99.90;;;;;;4987358;28;20050;-65
2023/01/06 10:15:02;;;;;;;18.67;2.15;;;9.40;99.90;;;;;;4987448;28;20126;-66
2023/01/06 10:17:57;;;;;;;15.70;2.50;;;9.40;99.90;;;;;;5003429;28;20062;-68
2023/01/06 10:20:31;;;;;;;10.00;1.65;;;9.50;99.90;;;;;;5001190;28;20042;-64
2023/01/06 10:23:14;;;;;;;15.13;2.72;;;9.50;99.90;;;;;;4981225;28;20500;-67
2023/01/06 10:25:41;;;;;;;;;;;9.50;99.90;;;;;;4984477;28;20171;-66
2023/01/06 10:28:15;;;;;;;16.65;1.92;;;9.50;99.90;;;;;;4986968;28;19921;-66
2023/01/06 10:30:44;;;;;;;16.27;2.25;;;9.50;99.90;;;;;;4980642;28;20408;-66
2023/01/06 10:33:33;;;;;;;13.98;2.03;;;9.60;99.90;;;;;;4981222;28;20038;-65
2023/01/06 10:35:59;;;;;;;18.05;2.30;;;9.60;99.90;;;;;;4983545;28;20397;-66
2023/01/06 10:38:36;;;;;;;13.93;2.10;;;9.60;99.90;;;;;;4999389;28;20077;-67
2023/01/06 10:41:19;;;;;;;14.80;1.77;;;9.70;99.90;;;;;;5003306;28;20042;-67
2023/01/06 10:43:45;;;;;;;13.18;1.88;;;9.70;99.90;;;;;;4963759;28;20049;-66
2023/01/06 10:46:11;;;;;;;15.45;2.10;;;9.70;99.90;;;;;;4990037;28;20042;-68
2023/01/06 10:48:38;;;;;;;14.52;1.95;;;9.80;99.90;;;;;;4993167;28;20551;-67
2023/01/06 10:51:30;;;;;;;12.02;2.03;;;9.70;99.90;;;;;;4990679;28;20412;-66
2023/01/06 10:53:59;;;;;;;19.65;2.22;;;9.80;99.90;;;;;;4990035;28;20077;-69
2023/01/06 10:56:28;;;;;;;11.45;1.92;;;9.80;99.90;;;;;;4991030;28;20030;-66
2023/01/06 10:58:58;;;;;;;12.88;2.00;;;9.80;99.90;;;;;;4989888;28;20080;-68
2023/01/06 11:01:30;;;;;;;19.58;2.10;;;9.80;99.90;;;;;;4992047;28;20038;-66
2023/01/06 11:04:11;;;;;;;17.83;2.40;;;9.80;99.90;;;;;;4999685;28;20037;-70
2023/01/06 11:06:51;;;;;;;15.88;2.38;;;9.80;99.90;;;;;;4976302;28;20404;-68
2023/01/06 11:09:38;;;;;;;16.65;2.28;;;9.80;99.90;;;;;;4989491;28;20050;-68
2023/01/06 11:12:24;;;;;;;13.82;2.30;;;9.80;99.90;;;;;;4991539;28;20046;-69
2023/01/06 11:14:57;;;;;;;13.85;1.85;;;9.80;99.90;;;;;;5007773;28;20396;-69
2023/01/06 11:17:24;;;;;;;13.88;1.67;;;9.80;99.90;;;;;;4991103;28;20044;-66
2023/01/06 11:20:12;;;;;;;18.15;2.47;;;9.80;99.90;;;;;;4994194;28;20045;-68
2023/01/06 11:22:42;;;;;;;17.40;2.05;;;9.80;99.90;;;;;;4988376;28;20037;-66
2023/01/06 11:25:20;;;;;;;12.00;1.70;;;9.80;99.90;;;;;;4991135;28;20049;-70
2023/01/06 11:28:18;;;;;;;9.32;1.20;;;9.80;99.90;;;;;;4990550;28;20475;-70
2023/01/06 11:30:48;;;;;;;15.43;1.75;;;9.80;99.90;;;;;;4994662;28;20046;-67
2023/01/06 11:33:22;;;;;;;10.88;1.45;;;9.80;99.90;;;;;;4993572;28;20042;-65
2023/01/06 11:35:48;;;;;;;16.80;2.20;;;9.80;99.90;;;;;;4995679;28;20042;-69
2023/01/06 11:38:16;;;;;;;13.93;1.55;;;9.80;99.90;;;;;;4990313;28;20404;-65
2023/01/06 11:40:45;;;;;;;12.00;1.48;;;9.90;99.90;;;;;;5011588;28;20056;-67
2023/01/06 11:43:16;;;;;;;17.92;3.80;;;9.90;99.90;;;;;;4998958;28;20034;-67
2023/01/06 11:46:16;;;;;;;19.08;3.33;;;10.00;99.90;;;;;;4990373;28;20074;-67
2023/01/06 11:48:56;;;;;;;15.85;2.15;;;10.00;99.90;;;;;;4940380;28;20608;-67
2023/01/06 11:51:46;;;;;;;21.08;1.73;;;10.00;99.90;;;;;;4988061;28;20037;-68
2023/01/06 11:54:25;;;;;;;15.85;2.55;;;10.00;99.90;;;;;;4992564;28;20038;-69
2023/01/06 11:57:01;;;;;;;13.57;2.00;;;10.10;99.90;;;;;;4995433;28;20068;-67
2023/01/06 11:59:40;;;;;;;20.17;1.88;;;10.00;99.90;;;;;;4992356;28;20038;-66
2023/01/06 12:02:12;;;;;;;18.77;3.67;;;10.00;99.90;;;;;;4994324;28;20045;-68
2023/01/06 12:04:48;;;;;;;11.45;2.20;;;9.90;99.90;;;;;;4994731;28;20160;-71
2023/01/06 12:07:36;;;;;;;12.52;2.45;;;9.80;99.90;;;;;;4995667;28;20107;-67
2023/01/06 12:10:18;;;;;;;11.82;1.75;;;9.80;99.90;;;;;;4990380;28;20096;-65
2023/01/06 12:12:44;;;;;;;16.60;2.65;;;9.80;99.90;;;;;;4990419;28;20081;-68
2023/01/06 12:15:13;;;;;;;19.42;2.08;;;9.70;99.90;;;;;;4992491;28;20128;-66
2023/01/06 12:18:16;;;;;;;11.88;1.77;;;9.70;99.90;;;;;;5010633;28;20038;-68
2023/01/06 12:20:46;;;;;;;8.65;1.40;;;9.60;99.90;;;;;;4988024;28;20077;-69
2023/01/06 12:23:31;;;;;;;12.95;1.90;;;9.60;99.90;;;;;;4994822;28;20042;-66
2023/01/06 12:26:01;;;;;;;16.27;2.10;;;9.60;99.90;;;;;;4992069;28;20052;-71
2023/01/06 12:28:33;;;;;;;21.98;6.53;;;9.70;99.90;;;;;;4990650;28;20042;-67
2023/01/06 12:31:18;;;;;;;19.25;3.65;;;9.70;99.90;;;;;;4992626;28;20579;-65
2023/01/06 12:34:04;;;;;;;37.45;12.20;;;9.70;99.90;;;;;;5001391;28;20072;-69
2023/01/06 12:36:57;;;;;;;17.02;2.85;;;9.70;99.90;;;;;;4994690;28;20557;-70
2023/01/06 12:39:34;;;;;;;18.67;2.60;;;9.80;99.90;;;;;;4990072;28;20049;-68
2023/01/06 12:42:17;;;;;;;20.33;2.50;;;9.70;99.90;;;;;;4994532;28;20046;-65
2023/01/06 12:44:45;;;;;;;16.48;2.00;;;9.80;99.90;;;;;;4998736;28;20042;-69
2023/01/06 12:47:29;;;;;;;13.45;1.60;;;9.80;99.90;;;;;;5010195;28;20046;-65
2023/01/06 12:50:20;;;;;;;15.30;2.10;;;9.80;99.90;;;;;;4992528;28;20156;-65
2023/01/06 12:52:59;;;;;;;12.60;1.63;;;9.80;99.90;;;;;;4988599;28;20105;-69
2023/01/06 12:55:40;;;;;;;14.88;1.73;;;9.80;99.90;;;;;;4993008;28;20233;-65
2023/01/06 12:58:45;;;;;;;13.68;1.95;;;9.80;99.90;;;;;;5010216;28;20052;-69
2023/01/06 13:01:20;;;;;;;13.07;1.75;;;9.70;99.90;;;;;;4988357;28;20062;-67
2023/01/06 13:03:57;;;;;;;18.77;1.88;;;9.70;99.90;;;;;;4991691;28;20133;-68